createdAt,value
2019-02-20T00:01:26.325Z,68.99
2019-02-20T00:03:55.509Z,68.84
2019-02-20T00:06:24.628Z,69.00
2019-02-20T00:08:53.740Z,69.19
2019-02-20T00:11:23.939Z,69.27
2019-02-20T00:13:53.058Z,69.12
2019-02-20T00:16:22.439Z,69.03
2019-02-20T00:18:51.555Z,69.12
2019-02-20T00:21:20.936Z,69.17
2019-02-20T00:23:50.052Z,68.92
2019-02-20T00:26:19.170Z,68.84
2019-02-20T00:28:48.304Z,68.79
2019-02-20T00:31:17.413Z,69.23
2019-02-20T00:33:46.538Z,69.10
2019-02-20T00:36:15.645Z,69.29
2019-02-20T00:38:44.763Z,68.81
2019-02-20T00:41:13.878Z,68.70
2019-02-20T00:43:44.630Z,69.25
2019-02-20T00:46:18.247Z,69.60
2019-02-20T00:48:49.009Z,69.46
2019-02-20T00:51:19.761Z,69.35
2019-02-20T00:53:50.530Z,69.80
2019-02-20T00:56:19.632Z,69.88
2019-02-20T00:58:48.754Z,69.72
2019-02-20T01:01:17.865Z,69.58
2019-02-20T01:03:46.984Z,69.37
2019-02-20T01:06:17.477Z,69.42
2019-02-20T01:08:46.589Z,69.40
2019-02-20T01:11:15.699Z,69.58
2019-02-20T01:13:44.814Z,69.63
2019-02-20T01:16:13.931Z,69.64
2019-02-20T01:18:43.365Z,70.23
2019-02-20T01:21:12.475Z,69.68
2019-02-20T01:23:41.592Z,69.97
2019-02-20T01:26:10.704Z,69.87
2019-02-20T01:28:39.821Z,70.11
2019-02-20T01:31:08.931Z,70.42
2019-02-20T01:33:38.050Z,70.22
2019-02-20T01:36:07.159Z,69.81
2019-02-20T01:38:36.284Z,69.89
2019-02-20T01:41:05.397Z,69.98
2019-02-20T01:43:35.492Z,69.23
2019-02-20T01:46:04.603Z,69.08
2019-02-20T01:48:33.717Z,69.25
2019-02-20T01:51:02.833Z,69.02
2019-02-20T01:53:31.943Z,69.11
2019-02-20T01:56:01.060Z,69.06
2019-02-20T01:58:30.171Z,69.23
2019-02-20T02:00:59.297Z,69.56
2019-02-20T02:03:28.404Z,69.89
2019-02-20T02:05:57.794Z,70.02
2019-02-20T02:08:26.904Z,69.90
2019-02-20T02:10:56.025Z,69.55
2019-02-20T02:13:25.136Z,69.48
2019-02-20T02:15:54.268Z,69.46
2019-02-20T02:18:23.384Z,69.26
2019-02-20T02:20:52.494Z,69.43
2019-02-20T02:23:21.626Z,69.33
2019-02-20T02:25:51.030Z,69.61
2019-02-20T02:28:20.138Z,69.78
2019-02-20T02:30:49.259Z,70.32
2019-02-20T02:33:18.371Z,70.16
2019-02-20T02:35:47.484Z,70.36
2019-02-20T02:38:16.598Z,70.21
2019-02-20T02:40:45.707Z,70.42
2019-02-20T02:43:14.843Z,70.50
2019-02-20T02:45:43.949Z,70.70
2019-02-20T02:48:13.404Z,70.64
2019-02-20T02:50:42.807Z,70.31
2019-02-20T02:53:11.931Z,70.57
2019-02-20T02:55:41.052Z,70.35
2019-02-20T02:58:10.166Z,70.63
2019-02-20T03:00:39.544Z,70.07
2019-02-20T03:03:09.599Z,70.22
2019-02-20T03:05:38.722Z,70.34
2019-02-20T03:08:07.832Z,70.70
2019-02-20T03:10:36.971Z,70.78
2019-02-20T03:13:06.076Z,70.99
2019-02-20T03:15:35.189Z,71.11
2019-02-20T03:18:04.305Z,70.89
2019-02-20T03:20:33.429Z,71.03
2019-02-20T03:23:02.546Z,70.96
2019-02-20T03:25:31.660Z,70.98
2019-02-20T03:28:00.787Z,71.32
2019-02-20T03:30:30.866Z,70.69
2019-02-20T03:32:59.991Z,70.59
2019-02-20T03:35:29.101Z,70.24
2019-02-20T03:37:58.212Z,70.59
2019-02-20T03:40:27.325Z,71.10
2019-02-20T03:42:56.441Z,71.03
2019-02-20T03:45:25.893Z,70.75
2019-02-20T03:47:55.033Z,70.72
2019-02-20T03:50:24.385Z,70.61
2019-02-20T03:52:53.508Z,70.56
2019-02-20T03:55:22.622Z,70.40
2019-02-20T03:57:52.819Z,70.37
2019-02-20T04:00:21.950Z,70.02
2019-02-20T04:02:51.077Z,69.80
2019-02-20T04:05:20.199Z,70.50
2019-02-20T04:07:49.321Z,70.07
2019-02-20T04:10:18.442Z,70.70
2019-02-20T04:12:47.850Z,70.78
2019-02-20T04:15:17.301Z,70.57
2019-02-20T04:17:47.416Z,70.48
2019-02-20T04:20:16.539Z,70.07
2019-02-20T04:22:45.657Z,69.95
2019-02-20T04:25:14.779Z,70.58
2019-02-20T04:27:43.897Z,70.63
2019-02-20T04:30:13.014Z,70.79
2019-02-20T04:32:42.137Z,70.23
2019-02-20T04:35:11.251Z,69.94
2019-02-20T04:37:40.477Z,69.62
2019-02-20T04:40:09.671Z,69.66
2019-02-20T04:42:38.777Z,69.70
2019-02-20T04:45:08.208Z,69.77
2019-02-20T04:47:37.358Z,69.75
2019-02-20T04:50:08.622Z,70.11
2019-02-20T04:52:37.790Z,70.25
2019-02-20T04:55:07.247Z,69.99
2019-02-20T04:57:37.334Z,70.14
2019-02-20T05:00:12.206Z,69.79
2019-02-20T05:02:41.323Z,69.84
2019-02-20T05:05:10.441Z,70.25
2019-02-20T05:07:39.552Z,70.19
2019-02-20T05:10:10.118Z,69.90
2019-02-20T05:12:39.529Z,69.95
2019-02-20T05:15:08.649Z,70.28
2019-02-20T05:17:37.773Z,70.28
2019-02-20T05:20:08.727Z,70.12
2019-02-20T05:22:37.851Z,70.00
2019-02-20T05:25:06.973Z,70.04
2019-02-20T05:27:36.098Z,69.66
2019-02-20T05:30:06.445Z,69.93
2019-02-20T05:32:35.573Z,70.12
2019-02-20T05:35:04.926Z,69.84
2019-02-20T05:37:34.050Z,69.60
2019-02-20T05:40:04.397Z,69.75
2019-02-20T05:42:33.516Z,70.11
2019-02-20T05:45:02.703Z,70.34
2019-02-20T05:47:31.818Z,70.10
2019-02-20T05:50:00.934Z,70.00
2019-02-20T05:52:30.054Z,69.88
2019-02-20T05:54:59.184Z,69.92
2019-02-20T05:57:28.312Z,70.04
2019-02-20T05:59:57.670Z,69.89
2019-02-20T06:02:26.861Z,70.09
2019-02-20T06:04:56.026Z,70.86
2019-02-20T06:07:25.096Z,70.75
2019-02-20T06:09:54.340Z,70.94
2019-02-20T06:12:23.459Z,71.27
2019-02-20T06:14:52.823Z,71.50
2019-02-20T06:17:21.938Z,71.34
2019-02-20T06:19:51.063Z,71.59
2019-02-20T06:22:20.201Z,71.70
2019-02-20T06:24:49.330Z,71.32
2019-02-20T06:27:19.424Z,71.20
2019-02-20T06:29:48.787Z,71.16
2019-02-20T06:32:17.918Z,71.16
2019-02-20T06:34:47.044Z,70.98
2019-02-20T06:37:16.173Z,71.00
2019-02-20T06:39:45.521Z,71.28
2019-02-20T06:42:14.912Z,71.57
2019-02-20T06:44:44.007Z,72.18
2019-02-20T06:47:13.368Z,72.07
2019-02-20T06:49:42.722Z,72.22
2019-02-20T06:52:12.082Z,72.43
2019-02-20T06:54:41.196Z,72.06
2019-02-20T06:57:10.549Z,71.61
2019-02-20T06:59:39.887Z,71.60
2019-02-20T07:02:09.128Z,71.28
2019-02-20T07:04:38.249Z,71.21
2019-02-20T07:07:10.623Z,71.27
2019-02-20T07:09:49.648Z,71.24
2019-02-20T07:12:27.868Z,71.55
2019-02-20T07:15:11.956Z,72.07
2019-02-20T07:17:44.740Z,71.85
2019-02-20T07:20:28.783Z,71.86
2019-02-20T07:23:16.014Z,71.60
2019-02-20T07:25:51.139Z,71.71
2019-02-20T07:28:39.559Z,72.03
2019-02-20T07:31:08.682Z,72.16
2019-02-20T07:33:37.800Z,71.96
2019-02-20T07:36:06.938Z,71.97
2019-02-20T07:38:36.109Z,71.85
2019-02-20T07:41:05.244Z,71.95
2019-02-20T07:43:34.598Z,71.83
2019-02-20T07:46:03.722Z,72.14
2019-02-20T07:48:34.019Z,72.12
2019-02-20T07:51:04.104Z,72.36
2019-02-20T07:53:34.202Z,72.29
2019-02-20T07:56:03.317Z,72.52
2019-02-20T07:58:32.438Z,72.50
2019-02-20T08:01:01.571Z,72.10
2019-02-20T08:03:30.682Z,72.27
2019-02-20T08:05:59.798Z,72.12
2019-02-20T08:08:28.936Z,72.02
2019-02-20T08:10:58.042Z,72.12
2019-02-20T08:13:27.177Z,71.70
2019-02-20T08:15:56.551Z,71.04
2019-02-20T08:18:25.646Z,71.24
2019-02-20T08:20:54.763Z,71.01
2019-02-20T08:23:23.893Z,71.20
2019-02-20T08:25:53.014Z,71.13
2019-02-20T08:28:22.138Z,71.30
2019-02-20T08:30:51.261Z,71.09
2019-02-20T08:33:20.381Z,71.03
2019-02-20T08:35:49.498Z,70.97
2019-02-20T08:38:18.621Z,71.22
2019-02-20T08:40:47.778Z,70.87
2019-02-20T08:43:17.825Z,70.47
2019-02-20T08:45:46.938Z,70.59
2019-02-20T08:48:17.035Z,70.34
2019-02-20T08:50:46.421Z,70.11
2019-02-20T08:53:15.609Z,70.15
2019-02-20T08:55:44.727Z,70.11
2019-02-20T08:58:13.854Z,69.83
2019-02-20T09:00:42.975Z,69.81
2019-02-20T09:03:12.106Z,69.39
2019-02-20T09:05:41.294Z,69.24
2019-02-20T09:08:10.455Z,68.88
2019-02-20T09:10:39.535Z,68.68
2019-02-20T09:13:08.665Z,68.88
2019-02-20T09:15:37.775Z,68.55
2019-02-20T09:18:06.913Z,68.89
2019-02-20T09:20:36.029Z,68.61
2019-02-20T09:23:05.145Z,68.25
2019-02-20T09:25:41.333Z,67.41
2019-02-20T09:28:05.184Z,67.57
2019-02-20T09:30:34.275Z,67.10
2019-02-20T09:33:03.397Z,67.16
2019-02-20T09:35:32.513Z,67.10
2019-02-20T09:38:01.628Z,67.15
2019-02-20T09:40:30.756Z,66.87
2019-02-20T09:42:59.882Z,66.58
2019-02-20T09:45:29.007Z,66.34
2019-02-20T09:47:58.131Z,66.33
2019-02-20T09:50:28.219Z,66.64
2019-02-20T09:52:57.341Z,66.08
2019-02-20T09:55:26.473Z,65.41
2019-02-20T09:57:55.584Z,65.35
2019-02-20T10:00:25.675Z,65.34
2019-02-20T10:02:54.791Z,64.87
2019-02-20T10:05:24.240Z,65.33
2019-02-20T10:07:53.408Z,64.23
2019-02-20T10:10:22.854Z,64.96
2019-02-20T10:12:51.971Z,64.70
2019-02-20T10:15:21.092Z,64.69
2019-02-20T10:17:50.210Z,64.30
2019-02-20T10:20:19.345Z,63.93
2019-02-20T10:22:48.463Z,63.63
2019-02-20T10:25:17.587Z,63.68
2019-02-20T10:27:46.695Z,63.64
2019-02-20T10:30:17.931Z,64.04
2019-02-20T10:32:47.096Z,63.35
2019-02-20T10:35:16.240Z,63.67
2019-02-20T10:37:45.356Z,63.52
2019-02-20T10:40:14.477Z,63.08
2019-02-20T10:42:43.591Z,63.06
2019-02-20T10:45:13.348Z,63.07
2019-02-20T10:47:42.476Z,62.83
2019-02-20T10:50:12.437Z,62.84
2019-02-20T10:52:41.630Z,62.56
2019-02-20T10:55:10.990Z,62.16
2019-02-20T10:57:40.119Z,62.19
2019-02-20T11:00:23.472Z,61.06
2019-02-20T11:02:48.331Z,60.78
2019-02-20T11:05:17.460Z,60.68
2019-02-20T11:07:47.855Z,60.96
2019-02-20T11:10:16.977Z,60.31
2019-02-20T11:12:46.448Z,59.53
2019-02-20T11:15:15.638Z,59.68
2019-02-20T11:17:44.828Z,59.02
2019-02-20T11:20:14.183Z,57.92
2019-02-20T11:22:43.309Z,57.52
2019-02-20T11:25:12.907Z,56.89
2019-02-20T11:27:42.028Z,56.49
2019-02-20T11:30:19.600Z,56.05
2019-02-20T11:32:48.721Z,56.11
2019-02-20T11:35:17.856Z,56.14
2019-02-20T11:37:46.976Z,55.59
2019-02-20T11:40:16.110Z,55.18
2019-02-20T11:42:45.235Z,54.80
2019-02-20T11:45:16.457Z,54.33
2019-02-20T11:47:45.584Z,53.86
2019-02-20T11:50:14.702Z,53.87
2019-02-20T11:52:43.839Z,54.47
2019-02-20T11:55:14.000Z,54.97
2019-02-20T11:57:43.131Z,54.82
2019-02-20T12:00:14.646Z,54.67
2019-02-20T12:02:43.775Z,54.10
2019-02-20T12:05:12.897Z,54.00
2019-02-20T12:07:42.263Z,54.41
2019-02-20T12:10:12.950Z,54.40
2019-02-20T12:12:42.254Z,54.11
2019-02-20T12:15:11.615Z,54.24
2019-02-20T12:17:40.750Z,53.30
2019-02-20T12:20:09.864Z,53.49
2019-02-20T12:22:39.296Z,52.50
2019-02-20T12:25:09.468Z,52.46
2019-02-20T12:27:38.598Z,52.37
2019-02-20T12:30:11.891Z,51.53
2019-02-20T12:32:41.255Z,51.44
2019-02-20T12:35:10.365Z,51.69
2019-02-20T12:37:39.480Z,51.24
2019-02-20T12:40:09.836Z,51.16
2019-02-20T12:42:38.953Z,51.51
2019-02-20T12:45:08.751Z,50.78
2019-02-20T12:47:37.902Z,50.35
2019-02-20T12:50:12.005Z,50.07
2019-02-20T12:52:41.126Z,49.88
2019-02-20T12:55:10.420Z,49.98
2019-02-20T12:57:39.542Z,50.54
2019-02-20T13:00:11.454Z,49.39
2019-02-20T13:02:40.795Z,49.38
2019-02-20T13:05:09.909Z,49.48
2019-02-20T13:07:39.325Z,48.85
2019-02-20T13:10:09.193Z,47.48
2019-02-20T13:12:38.305Z,46.67
2019-02-20T13:15:10.038Z,46.26
2019-02-20T13:17:39.384Z,46.03
2019-02-20T13:20:10.042Z,46.08
2019-02-20T13:22:39.570Z,45.38
2019-02-20T13:25:09.536Z,45.52
2019-02-20T13:27:40.153Z,44.53
2019-02-20T13:30:11.718Z,45.46
2019-02-20T13:32:41.057Z,45.09
2019-02-20T13:35:11.147Z,45.16
2019-02-20T13:37:40.337Z,45.15
2019-02-20T13:40:10.590Z,45.45
2019-02-20T13:42:39.698Z,45.73
2019-02-20T13:45:09.305Z,46.42
2019-02-20T13:47:40.363Z,46.20
2019-02-20T13:50:11.916Z,45.98
2019-02-20T13:52:41.351Z,45.57
2019-02-20T13:55:10.471Z,46.21
2019-02-20T13:57:40.563Z,45.52
2019-02-20T14:00:13.434Z,45.64
2019-02-20T14:02:42.705Z,45.01
2019-02-20T14:05:11.827Z,44.97
2019-02-20T14:07:42.031Z,45.41
2019-02-20T14:10:12.204Z,45.12
2019-02-20T14:12:42.284Z,45.30
2019-02-20T14:15:12.117Z,45.46
2019-02-20T14:17:41.233Z,45.10
2019-02-20T14:20:11.492Z,45.29
2019-02-20T14:22:40.957Z,45.11
2019-02-20T14:25:10.754Z,45.04
2019-02-20T14:27:39.830Z,45.16
2019-02-20T14:30:12.580Z,45.71
2019-02-20T14:32:41.700Z,44.05
2019-02-20T14:35:12.669Z,43.54
2019-02-20T14:37:43.447Z,43.46
2019-02-20T14:40:12.571Z,42.75
2019-02-20T14:42:41.738Z,43.51
2019-02-20T14:45:15.943Z,42.92
2019-02-20T14:47:45.059Z,43.07
2019-02-20T14:50:14.173Z,44.03
2019-02-20T14:52:43.289Z,43.82
2019-02-20T14:55:12.409Z,43.78
2019-02-20T14:57:41.530Z,43.44
2019-02-20T15:00:13.060Z,43.14
2019-02-20T15:02:42.577Z,43.94
2019-02-20T15:05:12.113Z,43.42
2019-02-20T15:07:41.300Z,44.40
2019-02-20T15:10:11.387Z,45.03
2019-02-20T15:12:40.504Z,45.51
2019-02-20T15:15:13.099Z,45.65
2019-02-20T15:17:42.228Z,45.29
2019-02-20T15:20:11.419Z,44.53
2019-02-20T15:22:40.571Z,44.30
2019-02-20T15:25:09.962Z,44.17
2019-02-20T15:27:39.083Z,43.95
2019-02-20T15:30:12.461Z,44.59
2019-02-20T15:32:41.751Z,45.12
2019-02-20T15:35:11.136Z,45.96
2019-02-20T15:37:40.262Z,46.02
2019-02-20T15:40:09.747Z,45.57
2019-02-20T15:42:38.883Z,45.89
2019-02-20T15:45:12.175Z,46.03
2019-02-20T15:47:41.305Z,45.87
2019-02-20T15:50:14.459Z,45.69
2019-02-20T15:52:43.592Z,45.96
2019-02-20T15:55:13.679Z,46.11
2019-02-20T15:57:42.822Z,46.05
2019-02-20T16:00:18.220Z,46.30
2019-02-20T16:02:47.358Z,46.90
2019-02-20T16:05:16.999Z,47.09
2019-02-20T16:07:46.118Z,47.58
2019-02-20T16:10:15.407Z,47.41
2019-02-20T16:12:44.660Z,47.20
2019-02-20T16:15:14.698Z,47.33
2019-02-20T16:17:44.895Z,47.53
2019-02-20T16:20:14.461Z,47.56
2019-02-20T16:22:43.582Z,47.41
2019-02-20T16:25:15.094Z,47.74
2019-02-20T16:27:47.027Z,48.15
2019-02-20T16:30:15.210Z,47.91
2019-02-20T16:32:44.325Z,47.92
2019-02-20T16:35:14.691Z,47.81
2019-02-20T16:37:44.054Z,47.70
2019-02-20T16:40:14.969Z,47.71
2019-02-20T16:42:44.156Z,47.68
2019-02-20T16:45:21.905Z,48.19
2019-02-20T16:47:51.457Z,48.55
2019-02-20T16:50:20.833Z,48.99
2019-02-20T16:52:50.327Z,48.87
2019-02-20T16:55:19.996Z,49.05
2019-02-20T16:57:56.251Z,49.97
2019-02-20T17:00:22.098Z,50.30
2019-02-20T17:02:51.917Z,50.46
2019-02-20T17:05:21.052Z,51.00
2019-02-20T17:07:50.409Z,51.24
2019-02-20T17:10:19.775Z,51.50
2019-02-20T17:12:48.896Z,51.43
2019-02-20T17:15:18.116Z,51.69
2019-02-20T17:17:47.503Z,51.58
2019-02-20T17:20:18.081Z,51.73
2019-02-20T17:22:47.181Z,51.80
2019-02-20T17:25:16.883Z,52.81
2019-02-20T17:27:46.010Z,52.47
2019-02-20T17:30:16.279Z,52.46
2019-02-20T17:32:45.792Z,52.72
2019-02-20T17:35:17.061Z,53.12
2019-02-20T17:37:45.915Z,54.60
2019-02-20T17:40:15.214Z,54.47
2019-02-20T17:42:44.412Z,54.80
2019-02-20T17:45:17.875Z,54.90
2019-02-20T17:47:47.227Z,54.36
2019-02-20T17:50:22.146Z,53.86
2019-02-20T17:52:51.511Z,54.23
2019-02-20T17:55:20.893Z,55.11
2019-02-20T17:57:50.005Z,55.21
2019-02-20T18:00:20.784Z,55.60
2019-02-20T18:02:49.885Z,56.81
2019-02-20T18:05:19.251Z,56.14
2019-02-20T18:07:51.725Z,55.99
2019-02-20T18:10:19.200Z,56.04
2019-02-20T18:12:48.324Z,56.39
2019-02-20T18:15:17.455Z,55.81
2019-02-20T18:17:46.580Z,55.85
2019-02-20T18:20:15.700Z,55.79
2019-02-20T18:22:44.824Z,55.99
2019-02-20T18:25:13.956Z,55.98
2019-02-20T18:27:43.163Z,56.57
2019-02-20T18:30:16.139Z,57.27
2019-02-20T18:32:45.639Z,57.91
2019-02-20T18:35:16.864Z,58.17
2019-02-20T18:37:45.981Z,57.22
2019-02-20T18:40:17.984Z,57.62
2019-02-20T18:42:47.181Z,57.93
2019-02-20T18:45:16.306Z,57.43
2019-02-20T18:47:45.435Z,58.19
2019-02-20T18:50:15.540Z,57.94
2019-02-20T18:52:44.728Z,58.64
2019-02-20T18:55:14.219Z,59.24
2019-02-20T18:57:43.551Z,59.01
2019-02-20T19:00:15.324Z,58.55
2019-02-20T19:02:44.618Z,58.35
2019-02-20T19:05:13.718Z,59.16
2019-02-20T19:07:44.858Z,59.51
2019-02-20T19:10:24.523Z,59.89
2019-02-20T19:13:11.771Z,60.77
2019-02-20T19:15:56.326Z,59.73
2019-02-20T19:18:43.809Z,60.67
2019-02-20T19:21:34.129Z,59.42
2019-02-20T19:24:18.237Z,59.01
2019-02-20T19:26:48.389Z,58.99
2019-02-20T19:29:20.872Z,58.65
2019-02-20T19:32:15.669Z,59.39
2019-02-20T19:35:04.016Z,59.47
2019-02-20T19:37:51.329Z,59.62
2019-02-20T19:40:32.251Z,59.60
2019-02-20T19:43:07.587Z,59.63
2019-02-20T19:45:40.005Z,59.35
2019-02-20T19:48:27.013Z,59.53
2019-02-20T19:51:08.187Z,60.00
2019-02-20T19:54:01.204Z,60.08
2019-02-20T19:56:48.505Z,59.67
2019-02-20T19:59:40.496Z,59.64
2019-02-20T20:02:15.575Z,60.02
2019-02-20T20:05:22.557Z,60.22
2019-02-20T20:07:57.975Z,59.92
2019-02-20T20:10:51.734Z,59.99
2019-02-20T20:13:24.185Z,59.71
2019-02-20T20:15:59.121Z,60.02
2019-02-20T20:18:51.114Z,59.93
2019-02-20T20:21:23.482Z,60.01
2019-02-20T20:24:12.493Z,59.83
2019-02-20T20:26:50.128Z,60.08
2019-02-20T20:29:51.399Z,60.19
2019-02-20T20:32:32.800Z,60.21
2019-02-20T20:35:10.992Z,60.29
2019-02-20T20:37:46.248Z,60.48
2019-02-20T20:40:44.261Z,60.92
2019-02-20T20:43:25.563Z,60.88
2019-02-20T20:46:20.565Z,61.36
2019-02-20T20:49:04.447Z,61.06
2019-02-20T20:51:40.595Z,62.00
2019-02-20T20:54:30.758Z,62.16
2019-02-20T20:57:24.725Z,62.55
2019-02-20T21:00:06.111Z,62.54
2019-02-20T21:02:41.634Z,61.97
2019-02-20T21:05:22.747Z,61.64
2019-02-20T21:08:03.702Z,61.52
2019-02-20T21:11:10.409Z,62.17
2019-02-20T21:14:05.234Z,62.63
2019-02-20T21:16:52.295Z,62.39
2019-02-20T21:19:42.610Z,62.64
2019-02-20T21:22:20.944Z,62.73
2019-02-20T21:25:15.775Z,62.49
2019-02-20T21:27:54.771Z,62.46
2019-02-20T21:30:46.687Z,62.14
2019-02-20T21:33:25.716Z,62.29
2019-02-20T21:36:01.132Z,62.61
2019-02-20T21:38:42.562Z,62.75
2019-02-20T21:41:23.750Z,62.74
2019-02-20T21:44:04.940Z,62.61
2019-02-20T21:46:54.576Z,62.44
2019-02-20T21:49:29.516Z,62.40
2019-02-20T21:52:10.687Z,61.81
2019-02-20T21:54:51.772Z,61.77
2019-02-20T21:57:24.145Z,61.89
2019-02-20T22:00:05.594Z,61.89
2019-02-20T22:02:51.397Z,61.91
2019-02-20T22:05:24.187Z,61.85
2019-02-20T22:08:13.076Z,62.52
2019-02-20T22:11:13.551Z,62.67
2019-02-20T22:14:00.563Z,62.49
2019-02-20T22:16:41.560Z,62.53
2019-02-20T22:19:14.090Z,62.62
2019-02-20T22:22:08.922Z,62.77
2019-02-20T22:25:15.186Z,63.50
2019-02-20T22:27:53.494Z,64.43
2019-02-20T22:30:26.193Z,64.91
2019-02-20T22:33:16.843Z,64.68
2019-02-20T22:36:06.688Z,64.95
2019-02-20T22:38:55.802Z,65.27
2019-02-20T22:41:30.958Z,65.55
2019-02-20T22:44:03.419Z,65.91
2019-02-20T22:46:36.139Z,66.26
2019-02-20T22:49:18.473Z,66.44
2019-02-20T22:51:53.992Z,66.30
2019-02-20T22:54:50.227Z,66.21
2019-02-20T22:57:40.694Z,66.01
2019-02-20T23:00:37.336Z,65.77
2019-02-20T23:03:37.003Z,65.96
2019-02-20T23:06:09.684Z,66.13
2019-02-20T23:08:53.819Z,65.80
2019-02-20T23:11:26.579Z,65.90
2019-02-20T23:14:07.404Z,65.96
2019-02-20T23:16:36.607Z,66.16
2019-02-20T23:19:05.727Z,65.83
2019-02-20T23:21:34.861Z,66.27
2019-02-20T23:24:03.970Z,66.64
2019-02-20T23:26:33.091Z,66.91
2019-02-20T23:29:02.209Z,67.06
2019-02-20T23:31:31.326Z,67.07
2019-02-20T23:34:00.452Z,67.12
2019-02-20T23:36:29.572Z,66.84
2019-02-20T23:38:58.691Z,67.65
2019-02-20T23:41:27.804Z,67.97
2019-02-20T23:43:56.935Z,69.06
2019-02-20T23:46:26.049Z,68.89
2019-02-20T23:48:55.183Z,68.77
2019-02-20T23:51:24.303Z,68.58
2019-02-20T23:53:53.444Z,68.40
2019-02-20T23:56:22.544Z,68.49
2019-02-20T23:58:51.663Z,68.66
